sensor_id;sensor_type;location;lat;lon;timestamp;temperature;humidity
35381;DHT22;21486;51.916;8.378;2022-07-29T08:19:31;20.00;78.80
35381;DHT22;21486;51.916;8.378;2022-07-29T08:21:56;28.80;69.50
35381;DHT22;21486;51.916;8.378;2022-07-29T08:44:09;29.40;66.00
35381;DHT22;21486;51.916;8.378;2022-07-29T08:46:38;31.20;58.60
35381;DHT22;21486;51.916;8.378;2022-07-29T08:49:04;30.30;59.60
35381;DHT22;21486;51.916;8.378;2022-07-29T08:51:30;30.90;59.50
35381;DHT22;21486;51.916;8.378;2022-07-29T08:53:58;31.60;58.40
35381;DHT22;21486;51.916;8.378;2022-07-29T08:56:24;31.70;57.10
35381;DHT22;21486;51.916;8.378;2022-07-29T08:58:49;31.40;58.00
35381;DHT22;21486;51.916;8.378;2022-07-29T09:01:17;31.80;58.70
35381;DHT22;21486;51.916;8.378;2022-07-29T14:39:46;32.40;57.80
35381;DHT22;21486;51.916;8.378;2022-07-29T14:42:11;26.40;67.40
35381;DHT22;21486;51.916;8.378;2022-07-29T14:44:38;26.00;68.60
35381;DHT22;21486;51.916;8.378;2022-07-29T14:47:03;25.80;68.50
35381;DHT22;21486;51.916;8.378;2022-07-29T14:49:29;25.80;69.10
35381;DHT22;21486;51.916;8.378;2022-07-29T14:51:55;25.60;68.50
35381;DHT22;21486;51.916;8.378;2022-07-29T14:54:20;25.60;69.50
35381;DHT22;21486;51.916;8.378;2022-07-29T14:56:46;25.50;70.60
35381;DHT22;21486;51.916;8.378;2022-07-29T14:59:12;25.60;69.70
35381;DHT22;21486;51.916;8.378;2022-07-29T15:01:38;25.50;70.70
35381;DHT22;21486;51.916;8.378;2022-07-29T15:04:04;25.40;70.70
35381;DHT22;21486;51.916;8.378;2022-07-29T15:06:29;25.40;72.40
35381;DHT22;21486;51.916;8.378;2022-07-29T15:08:55;25.30;72.10
35381;DHT22;21486;51.916;8.378;2022-07-29T15:11:20;25.40;72.30
35381;DHT22;21486;51.916;8.378;2022-07-29T15:13:46;25.40;72.00
35381;DHT22;21486;51.916;8.378;2022-07-29T15:16:12;25.40;72.50
35381;DHT22;21486;51.916;8.378;2022-07-29T15:18:37;25.40;72.90
35381;DHT22;21486;51.916;8.378;2022-07-29T15:21:05;25.60;72.60
35381;DHT22;21486;51.916;8.378;2022-07-29T15:23:32;25.40;72.30
35381;DHT22;21486;51.916;8.378;2022-07-29T15:25:58;25.40;74.00
35381;DHT22;21486;51.916;8.378;2022-07-29T15:28:23;25.40;73.90
35381;DHT22;21486;51.916;8.378;2022-07-29T15:30:49;25.40;74.20
35381;DHT22;21486;51.916;8.378;2022-07-29T15:33:14;25.30;74.60
35381;DHT22;21486;51.916;8.378;2022-07-29T15:35:40;25.20;74.50
35381;DHT22;21486;51.916;8.378;2022-07-29T16:05:04;25.00;74.60
35381;DHT22;21486;51.916;8.378;2022-07-29T16:07:29;24.20;77.60
35381;DHT22;21486;51.916;8.378;2022-07-29T16:09:55;24.00;77.90
35381;DHT22;21486;51.916;8.378;2022-07-29T16:12:20;23.90;78.60
35381;DHT22;21486;51.916;8.378;2022-07-29T16:14:46;23.80;78.40
35381;DHT22;21486;51.916;8.378;2022-07-29T16:17:13;23.70;79.00
35381;DHT22;21486;51.916;8.378;2022-07-29T16:19:39;23.50;79.10
35381;DHT22;21486;51.916;8.378;2022-07-29T16:22:04;23.50;79.70
35381;DHT22;21486;51.916;8.378;2022-07-29T16:24:30;23.40;80.30
35381;DHT22;21486;51.916;8.378;2022-07-29T16:26:57;23.40;80.70
35381;DHT22;21486;51.916;8.378;2022-07-29T16:29:22;23.30;81.90
35381;DHT22;21486;51.916;8.378;2022-07-29T16:31:48;23.20;82.30
35381;DHT22;21486;51.916;8.378;2022-07-29T16:34:21;23.20;82.30
35381;DHT22;21486;51.916;8.378;2022-07-29T16:36:57;23.20;82.80
35381;DHT22;21486;51.916;8.378;2022-07-29T16:39:22;23.20;83.00
35381;DHT22;21486;51.916;8.378;2022-07-29T16:41:48;23.20;83.20
35381;DHT22;21486;51.916;8.378;2022-07-29T16:44:13;23.10;83.20
35381;DHT22;21486;51.916;8.378;2022-07-29T16:46:42;23.20;84.80
35381;DHT22;21486;51.916;8.378;2022-07-29T16:49:08;23.20;83.40
35381;DHT22;21486;51.916;8.378;2022-07-29T16:51:33;23.30;82.60
35381;DHT22;21486;51.916;8.378;2022-07-29T16:53:58;23.40;82.10
35381;DHT22;21486;51.916;8.378;2022-07-29T16:56:24;23.30;82.50
35381;DHT22;21486;51.916;8.378;2022-07-29T16:58:49;23.40;82.70
35381;DHT22;21486;51.916;8.378;2022-07-29T17:01:15;23.30;82.60
35381;DHT22;21486;51.916;8.378;2022-07-29T17:03:41;23.40;83.20
35381;DHT22;21486;51.916;8.378;2022-07-29T17:06:26;23.40;82.10
35381;DHT22;21486;51.916;8.378;2022-07-29T17:08:51;23.30;83.80
35381;DHT22;21486;51.916;8.378;2022-07-29T17:11:17;23.30;83.20
35381;DHT22;21486;51.916;8.378;2022-07-29T17:13:42;23.30;91.30
35381;DHT22;21486;51.916;8.378;2022-07-29T23:34:30;22.80;95.80
35381;DHT22;21486;51.916;8.378;2022-07-29T23:36:56;18.00;99.90
35381;DHT22;21486;51.916;8.378;2022-07-29T23:39:21;17.70;99.90
35381;DHT22;21486;51.916;8.378;2022-07-29T23:41:47;17.70;99.90
35381;DHT22;21486;51.916;8.378;2022-07-29T23:44:12;17.70;99.90
35381;DHT22;21486;51.916;8.378;2022-07-29T23:46:38;17.80;99.90
35381;DHT22;21486;51.916;8.378;2022-07-29T23:49:04;17.80;99.90
35381;DHT22;21486;51.916;8.378;2022-07-29T23:51:29;17.90;99.90
35381;DHT22;21486;51.916;8.378;2022-07-29T23:53:55;17.90;99.90
35381;DHT22;21486;51.916;8.378;2022-07-29T23:56:21;17.90;99.90
35381;DHT22;21486;51.916;8.378;2022-07-29T23:58:46;17.90;99.90
